Terminal Aerodrome Forecast
Issued by NWS

Home | Current Version | Previous Version | Text Only | Print | Product List | Glossary On
Versions: 1 2 3 4 5 6 7 8 9 10 11 12 13
000
FTUS45 KTFX 251128
TAFCTB
TAF
KCTB 251128Z 2512/2612 VRB04KT P6SM SCT200
     FM252000 14008KT P6SM SCT090 BKN120
     FM260700 29005KT P6SM VCSH SCT025 OVC050=

USA.gov is the U.S. government's official web portal to all federal, state and local government web resources and services.